Itapuranga, Brazil
Current Conditions -  °F | °C
As of 10:00 PM on Friday 21 Nov 2014 (Local Time) from SBAN Reporting Station
Thunderstorm Thunderstorm  
Wind Chill: 64°   Ceiling: 3500
Heat Index: 64°   Visibility: 6mi
Dew Point: 63°   Wind: 2mph
Humidity: 94%   Direction: 300°WNW
Pressure: 30.06"   Gusts: NA
Location:  15.56°S, 49.95°W
Report Text: SBAN 220000Z 30002KT 9999 TS BKN035 FEW040CB 18/17 Q1018
Loading
Personal Weather Stations






























Interactive Weather Map New forecast layout! Learn more

10-Day Weather Forecast

Advertisements
Track Severe Weather on mobile